sensor_id;sensor_type;location;lat;lon;timestamp;temperature;humidity
75262;DHT22;63859;51.064;4.580;2023-03-25T00:01:30;9.30;99.90
75262;DHT22;63859;51.064;4.580;2023-03-25T00:03:58;9.30;99.90
75262;DHT22;63859;51.064;4.580;2023-03-25T00:06:29;9.30;99.90
75262;DHT22;63859;51.064;4.580;2023-03-25T00:08:55;9.30;99.90
75262;DHT22;63859;51.064;4.580;2023-03-25T00:11:21;9.20;99.90
75262;DHT22;63859;51.064;4.580;2023-03-25T00:13:47;9.20;99.90
75262;DHT22;63859;51.064;4.580;2023-03-25T00:16:13;9.20;99.90
75262;DHT22;63859;51.064;4.580;2023-03-25T00:18:39;9.10;99.90
75262;DHT22;63859;51.064;4.580;2023-03-25T00:21:06;9.10;99.90
75262;DHT22;63859;51.064;4.580;2023-03-25T00:23:35;9.10;99.90
75262;DHT22;63859;51.064;4.580;2023-03-25T00:26:01;9.10;99.90
75262;DHT22;63859;51.064;4.580;2023-03-25T00:28:29;9.10;99.90
75262;DHT22;63859;51.064;4.580;2023-03-25T00:30:58;9.10;99.90
75262;DHT22;63859;51.064;4.580;2023-03-25T00:33:25;9.20;99.90
75262;DHT22;63859;51.064;4.580;2023-03-25T00:35:52;9.10;99.90
75262;DHT22;63859;51.064;4.580;2023-03-25T00:38:24;9.10;99.90
75262;DHT22;63859;51.064;4.580;2023-03-25T00:41:06;9.00;99.90
75262;DHT22;63859;51.064;4.580;2023-03-25T00:43:33;9.10;99.90
75262;DHT22;63859;51.064;4.580;2023-03-25T00:45:58;9.00;99.90
75262;DHT22;63859;51.064;4.580;2023-03-25T00:48:24;9.00;99.90
75262;DHT22;63859;51.064;4.580;2023-03-25T00:50:51;9.00;99.90
75262;DHT22;63859;51.064;4.580;2023-03-25T00:53:17;9.00;99.90
75262;DHT22;63859;51.064;4.580;2023-03-25T00:55:44;8.90;99.90
75262;DHT22;63859;51.064;4.580;2023-03-25T00:58:10;8.90;99.90
75262;DHT22;63859;51.064;4.580;2023-03-25T01:00:35;8.90;99.90
75262;DHT22;63859;51.064;4.580;2023-03-25T01:03:01;9.00;99.90
75262;DHT22;63859;51.064;4.580;2023-03-25T01:05:28;8.90;99.90
75262;DHT22;63859;51.064;4.580;2023-03-25T01:07:54;8.90;99.90
75262;DHT22;63859;51.064;4.580;2023-03-25T01:10:21;9.00;99.90
75262;DHT22;63859;51.064;4.580;2023-03-25T01:12:47;8.90;99.90
75262;DHT22;63859;51.064;4.580;2023-03-25T01:15:12;8.90;99.90
75262;DHT22;63859;51.064;4.580;2023-03-25T01:17:38;8.90;99.90
75262;DHT22;63859;51.064;4.580;2023-03-25T01:20:04;8.70;99.90
75262;DHT22;63859;51.064;4.580;2023-03-25T01:22:34;8.80;99.90
75262;DHT22;63859;51.064;4.580;2023-03-25T01:25:00;8.80;99.90
75262;DHT22;63859;51.064;4.580;2023-03-25T01:27:26;8.80;99.90
75262;DHT22;63859;51.064;4.580;2023-03-25T01:29:51;8.80;99.90
75262;DHT22;63859;51.064;4.580;2023-03-25T01:32:19;8.80;99.90
75262;DHT22;63859;51.064;4.580;2023-03-25T01:34:44;8.70;99.90
75262;DHT22;63859;51.064;4.580;2023-03-25T01:37:11;8.90;99.90
75262;DHT22;63859;51.064;4.580;2023-03-25T01:39:37;8.80;99.90
75262;DHT22;63859;51.064;4.580;2023-03-25T01:42:02;8.80;99.90
75262;DHT22;63859;51.064;4.580;2023-03-25T01:46:55;8.70;99.90
75262;DHT22;63859;51.064;4.580;2023-03-25T01:49:27;8.80;99.90
75262;DHT22;63859;51.064;4.580;2023-03-25T01:51:59;8.80;99.90
75262;DHT22;63859;51.064;4.580;2023-03-25T01:54:27;8.80;99.90
75262;DHT22;63859;51.064;4.580;2023-03-25T01:56:53;8.90;99.90
75262;DHT22;63859;51.064;4.580;2023-03-25T01:59:22;8.90;99.90
75262;DHT22;63859;51.064;4.580;2023-03-25T02:01:49;8.90;99.90
75262;DHT22;63859;51.064;4.580;2023-03-25T02:04:24;8.90;99.90
75262;DHT22;63859;51.064;4.580;2023-03-25T02:06:52;8.80;99.90
75262;DHT22;63859;51.064;4.580;2023-03-25T02:09:22;8.90;99.90
75262;DHT22;63859;51.064;4.580;2023-03-25T02:11:48;9.00;99.90
75262;DHT22;63859;51.064;4.580;2023-03-25T02:14:19;9.00;99.90
75262;DHT22;63859;51.064;4.580;2023-03-25T02:17:11;9.00;99.90
75262;DHT22;63859;51.064;4.580;2023-03-25T02:25:28;8.90;99.90
75262;DHT22;63859;51.064;4.580;2023-03-25T02:28:07;8.80;99.90
75262;DHT22;63859;51.064;4.580;2023-03-25T02:39:22;8.90;99.90
75262;DHT22;63859;51.064;4.580;2023-03-25T02:42:14;9.00;99.90
75262;DHT22;63859;51.064;4.580;2023-03-25T02:45:00;8.90;99.90
75262;DHT22;63859;51.064;4.580;2023-03-25T02:47:35;8.90;99.90
75262;DHT22;63859;51.064;4.580;2023-03-25T02:50:10;8.90;99.90
75262;DHT22;63859;51.064;4.580;2023-03-25T02:52:50;9.00;99.90
75262;DHT22;63859;51.064;4.580;2023-03-25T02:55:17;8.90;99.90
75262;DHT22;63859;51.064;4.580;2023-03-25T02:57:46;8.90;99.90
75262;DHT22;63859;51.064;4.580;2023-03-25T03:00:15;8.90;99.90
75262;DHT22;63859;51.064;4.580;2023-03-25T03:02:51;8.90;99.90
75262;DHT22;63859;51.064;4.580;2023-03-25T03:05:28;8.90;99.90
75262;DHT22;63859;51.064;4.580;2023-03-25T03:08:14;8.90;99.90
75262;DHT22;63859;51.064;4.580;2023-03-25T03:13:39;9.00;99.90
75262;DHT22;63859;51.064;4.580;2023-03-25T03:16:24;8.80;99.90
75262;DHT22;63859;51.064;4.580;2023-03-25T03:19:11;8.80;99.90
75262;DHT22;63859;51.064;4.580;2023-03-25T03:24:36;8.70;99.90
75262;DHT22;63859;51.064;4.580;2023-03-25T03:29:37;8.60;99.90
75262;DHT22;63859;51.064;4.580;2023-03-25T03:32:17;8.60;99.90
75262;DHT22;63859;51.064;4.580;2023-03-25T03:34:50;8.60;99.90
75262;DHT22;63859;51.064;4.580;2023-03-25T03:37:40;8.50;99.90
75262;DHT22;63859;51.064;4.580;2023-03-25T03:40:12;8.50;99.90
75262;DHT22;63859;51.064;4.580;2023-03-25T03:42:44;8.50;99.90
75262;DHT22;63859;51.064;4.580;2023-03-25T03:45:20;8.40;99.90
75262;DHT22;63859;51.064;4.580;2023-03-25T03:47:50;8.50;99.90
75262;DHT22;63859;51.064;4.580;2023-03-25T03:50:23;8.60;99.90
75262;DHT22;63859;51.064;4.580;2023-03-25T03:55:52;8.60;99.90
75262;DHT22;63859;51.064;4.580;2023-03-25T03:58:24;8.50;99.90
75262;DHT22;63859;51.064;4.580;2023-03-25T04:01:01;8.60;99.90
75262;DHT22;63859;51.064;4.580;2023-03-25T04:03:33;8.60;99.90
75262;DHT22;63859;51.064;4.580;2023-03-25T04:06:13;8.60;99.90
75262;DHT22;63859;51.064;4.580;2023-03-25T04:08:56;8.50;99.90
75262;DHT22;63859;51.064;4.580;2023-03-25T04:11:42;8.50;99.90
75262;DHT22;63859;51.064;4.580;2023-03-25T04:14:10;8.40;99.90
75262;DHT22;63859;51.064;4.580;2023-03-25T04:16:37;8.50;99.90
75262;DHT22;63859;51.064;4.580;2023-03-25T04:19:06;8.50;99.90
75262;DHT22;63859;51.064;4.580;2023-03-25T04:21:33;8.50;99.90
75262;DHT22;63859;51.064;4.580;2023-03-25T04:23:59;8.50;99.90
75262;DHT22;63859;51.064;4.580;2023-03-25T04:26:28;8.50;99.90
75262;DHT22;63859;51.064;4.580;2023-03-25T04:28:59;8.50;99.90
75262;DHT22;63859;51.064;4.580;2023-03-25T04:31:26;8.50;99.90
75262;DHT22;63859;51.064;4.580;2023-03-25T04:33:56;8.60;99.90
75262;DHT22;63859;51.064;4.580;2023-03-25T04:36:25;8.50;99.90
75262;DHT22;63859;51.064;4.580;2023-03-25T04:38:58;8.50;99.90
75262;DHT22;63859;51.064;4.580;2023-03-25T04:41:24;8.50;99.90
75262;DHT22;63859;51.064;4.580;2023-03-25T04:43:50;8.50;99.90
75262;DHT22;63859;51.064;4.580;2023-03-25T04:46:17;8.50;99.90
75262;DHT22;63859;51.064;4.580;2023-03-25T04:48:43;8.50;99.90
75262;DHT22;63859;51.064;4.580;2023-03-25T04:51:13;8.50;99.90
75262;DHT22;63859;51.064;4.580;2023-03-25T04:53:40;8.50;99.90
75262;DHT22;63859;51.064;4.580;2023-03-25T04:56:08;8.50;99.90
75262;DHT22;63859;51.064;4.580;2023-03-25T04:58:41;8.50;99.90
75262;DHT22;63859;51.064;4.580;2023-03-25T05:01:07;8.60;99.90
75262;DHT22;63859;51.064;4.580;2023-03-25T05:03:40;8.50;99.90
75262;DHT22;63859;51.064;4.580;2023-03-25T05:06:06;8.60;99.90
75262;DHT22;63859;51.064;4.580;2023-03-25T05:08:32;8.50;99.90
75262;DHT22;63859;51.064;4.580;2023-03-25T05:10:58;8.40;99.90
75262;DHT22;63859;51.064;4.580;2023-03-25T05:13:23;8.50;99.90
75262;DHT22;63859;51.064;4.580;2023-03-25T05:15:49;8.40;99.90
75262;DHT22;63859;51.064;4.580;2023-03-25T05:18:16;8.40;99.90
75262;DHT22;63859;51.064;4.580;2023-03-25T05:20:43;8.40;99.90
75262;DHT22;63859;51.064;4.580;2023-03-25T05:23:11;8.40;99.90
75262;DHT22;63859;51.064;4.580;2023-03-25T05:25:41;8.40;99.90
75262;DHT22;63859;51.064;4.580;2023-03-25T05:28:07;8.50;99.90
75262;DHT22;63859;51.064;4.580;2023-03-25T05:30:35;8.40;99.90
75262;DHT22;63859;51.064;4.580;2023-03-25T05:33:04;8.40;99.90
75262;DHT22;63859;51.064;4.580;2023-03-25T05:35:30;8.50;99.90
75262;DHT22;63859;51.064;4.580;2023-03-25T05:37:56;8.40;99.90
75262;DHT22;63859;51.064;4.580;2023-03-25T05:40:22;8.30;99.90
75262;DHT22;63859;51.064;4.580;2023-03-25T05:42:47;8.30;99.90
75262;DHT22;63859;51.064;4.580;2023-03-25T05:45:15;8.40;99.90
75262;DHT22;63859;51.064;4.580;2023-03-25T05:47:41;8.40;99.90
75262;DHT22;63859;51.064;4.580;2023-03-25T05:50:07;8.30;99.90
75262;DHT22;63859;51.064;4.580;2023-03-25T05:52:34;8.40;99.90
75262;DHT22;63859;51.064;4.580;2023-03-25T05:55:01;8.30;99.90
75262;DHT22;63859;51.064;4.580;2023-03-25T05:57:27;8.30;99.90
75262;DHT22;63859;51.064;4.580;2023-03-25T05:59:53;8.30;99.90
75262;DHT22;63859;51.064;4.580;2023-03-25T06:02:20;8.30;99.90
75262;DHT22;63859;51.064;4.580;2023-03-25T06:04:47;8.30;99.90
75262;DHT22;63859;51.064;4.580;2023-03-25T06:07:14;8.30;99.90
75262;DHT22;63859;51.064;4.580;2023-03-25T06:09:50;8.30;99.90
75262;DHT22;63859;51.064;4.580;2023-03-25T06:12:21;8.30;99.90
75262;DHT22;63859;51.064;4.580;2023-03-25T06:14:47;8.30;99.90
75262;DHT22;63859;51.064;4.580;2023-03-25T06:17:19;8.30;99.90
75262;DHT22;63859;51.064;4.580;2023-03-25T06:19:47;8.40;99.90
75262;DHT22;63859;51.064;4.580;2023-03-25T06:22:13;8.40;99.90
75262;DHT22;63859;51.064;4.580;2023-03-25T06:24:39;8.40;99.90
75262;DHT22;63859;51.064;4.580;2023-03-25T06:27:09;8.40;99.90
75262;DHT22;63859;51.064;4.580;2023-03-25T06:29:36;8.50;99.90
75262;DHT22;63859;51.064;4.580;2023-03-25T06:32:05;8.60;99.90
75262;DHT22;63859;51.064;4.580;2023-03-25T06:34:31;8.70;99.90
75262;DHT22;63859;51.064;4.580;2023-03-25T06:37:02;8.70;99.90
75262;DHT22;63859;51.064;4.580;2023-03-25T06:39:28;8.80;99.90
75262;DHT22;63859;51.064;4.580;2023-03-25T06:41:58;8.70;99.90
75262;DHT22;63859;51.064;4.580;2023-03-25T06:44:24;8.70;99.90
75262;DHT22;63859;51.064;4.580;2023-03-25T06:46:49;8.70;99.90
75262;DHT22;63859;51.064;4.580;2023-03-25T06:49:15;8.70;99.90
75262;DHT22;63859;51.064;4.580;2023-03-25T06:51:40;8.70;99.90
75262;DHT22;63859;51.064;4.580;2023-03-25T06:54:06;8.70;99.90
75262;DHT22;63859;51.064;4.580;2023-03-25T06:56:32;8.70;99.90
75262;DHT22;63859;51.064;4.580;2023-03-25T06:58:58;8.70;99.90
75262;DHT22;63859;51.064;4.580;2023-03-25T07:01:23;8.80;99.90
75262;DHT22;63859;51.064;4.580;2023-03-25T07:03:49;8.80;99.90
75262;DHT22;63859;51.064;4.580;2023-03-25T07:06:21;9.00;99.90
75262;DHT22;63859;51.064;4.580;2023-03-25T07:08:47;9.00;99.90
75262;DHT22;63859;51.064;4.580;2023-03-25T07:11:14;8.80;99.90
75262;DHT22;63859;51.064;4.580;2023-03-25T07:13:40;9.00;99.90
75262;DHT22;63859;51.064;4.580;2023-03-25T07:16:06;9.00;99.90
75262;DHT22;63859;51.064;4.580;2023-03-25T07:18:32;9.00;99.90
75262;DHT22;63859;51.064;4.580;2023-03-25T07:20:58;9.10;99.90
75262;DHT22;63859;51.064;4.580;2023-03-25T07:23:24;9.10;99.90
75262;DHT22;63859;51.064;4.580;2023-03-25T07:25:50;9.10;99.90
75262;DHT22;63859;51.064;4.580;2023-03-25T07:28:16;9.10;99.90
75262;DHT22;63859;51.064;4.580;2023-03-25T07:30:41;9.20;99.90
75262;DHT22;63859;51.064;4.580;2023-03-25T07:33:07;9.20;99.90
75262;DHT22;63859;51.064;4.580;2023-03-25T07:35:33;9.20;99.90
75262;DHT22;63859;51.064;4.580;2023-03-25T07:37:58;9.40;99.90
75262;DHT22;63859;51.064;4.580;2023-03-25T07:40:24;9.40;99.90
75262;DHT22;63859;51.064;4.580;2023-03-25T07:42:49;9.40;99.90
75262;DHT22;63859;51.064;4.580;2023-03-25T07:45:15;9.40;99.90
75262;DHT22;63859;51.064;4.580;2023-03-25T07:47:41;9.60;99.90
75262;DHT22;63859;51.064;4.580;2023-03-25T07:50:07;9.60;99.90
75262;DHT22;63859;51.064;4.580;2023-03-25T07:52:33;9.70;99.90
75262;DHT22;63859;51.064;4.580;2023-03-25T07:55:00;9.70;99.90
75262;DHT22;63859;51.064;4.580;2023-03-25T07:57:26;9.70;99.90
75262;DHT22;63859;51.064;4.580;2023-03-25T07:59:51;9.60;99.90
75262;DHT22;63859;51.064;4.580;2023-03-25T08:02:17;9.70;99.90
75262;DHT22;63859;51.064;4.580;2023-03-25T08:04:43;9.70;99.90
75262;DHT22;63859;51.064;4.580;2023-03-25T08:07:08;9.60;99.90
75262;DHT22;63859;51.064;4.580;2023-03-25T08:09:34;9.50;99.90
75262;DHT22;63859;51.064;4.580;2023-03-25T08:12:00;9.50;99.90
75262;DHT22;63859;51.064;4.580;2023-03-25T08:14:25;9.50;99.90
75262;DHT22;63859;51.064;4.580;2023-03-25T08:16:51;9.50;99.90
75262;DHT22;63859;51.064;4.580;2023-03-25T08:19:17;9.50;99.90
75262;DHT22;63859;51.064;4.580;2023-03-25T08:21:43;9.50;99.90
75262;DHT22;63859;51.064;4.580;2023-03-25T08:24:08;9.40;99.90
75262;DHT22;63859;51.064;4.580;2023-03-25T08:26:36;9.30;99.90
75262;DHT22;63859;51.064;4.580;2023-03-25T08:29:03;9.20;99.90
75262;DHT22;63859;51.064;4.580;2023-03-25T08:31:30;9.20;99.90
75262;DHT22;63859;51.064;4.580;2023-03-25T08:33:57;9.20;99.90
75262;DHT22;63859;51.064;4.580;2023-03-25T08:36:23;9.30;99.90
75262;DHT22;63859;51.064;4.580;2023-03-25T08:38:50;9.30;99.90
75262;DHT22;63859;51.064;4.580;2023-03-25T08:41:16;9.40;99.90
75262;DHT22;63859;51.064;4.580;2023-03-25T08:43:42;9.50;99.90
75262;DHT22;63859;51.064;4.580;2023-03-25T08:46:08;9.60;99.90
75262;DHT22;63859;51.064;4.580;2023-03-25T08:48:34;9.60;99.90
75262;DHT22;63859;51.064;4.580;2023-03-25T08:51:00;9.70;99.90
75262;DHT22;63859;51.064;4.580;2023-03-25T08:53:26;9.90;99.90
75262;DHT22;63859;51.064;4.580;2023-03-25T08:55:56;9.90;99.90
75262;DHT22;63859;51.064;4.580;2023-03-25T08:58:22;10.00;99.90
75262;DHT22;63859;51.064;4.580;2023-03-25T09:00:49;10.10;99.90
75262;DHT22;63859;51.064;4.580;2023-03-25T09:03:19;10.20;99.90
75262;DHT22;63859;51.064;4.580;2023-03-25T09:05:45;10.30;99.90
75262;DHT22;63859;51.064;4.580;2023-03-25T09:08:11;10.30;99.90
75262;DHT22;63859;51.064;4.580;2023-03-25T09:10:36;10.40;99.90
75262;DHT22;63859;51.064;4.580;2023-03-25T09:13:02;10.50;99.90
75262;DHT22;63859;51.064;4.580;2023-03-25T09:15:28;10.50;99.90
75262;DHT22;63859;51.064;4.580;2023-03-25T09:17:53;10.70;99.90
75262;DHT22;63859;51.064;4.580;2023-03-25T09:20:19;10.80;99.90
75262;DHT22;63859;51.064;4.580;2023-03-25T09:22:45;10.70;99.90
75262;DHT22;63859;51.064;4.580;2023-03-25T09:25:10;10.60;99.90
75262;DHT22;63859;51.064;4.580;2023-03-25T09:27:36;10.70;99.90
75262;DHT22;63859;51.064;4.580;2023-03-25T09:30:03;10.70;99.90
75262;DHT22;63859;51.064;4.580;2023-03-25T09:32:29;10.60;99.90
75262;DHT22;63859;51.064;4.580;2023-03-25T09:34:54;10.70;99.90
75262;DHT22;63859;51.064;4.580;2023-03-25T09:37:20;10.70;99.90
75262;DHT22;63859;51.064;4.580;2023-03-25T09:39:46;10.70;99.90
75262;DHT22;63859;51.064;4.580;2023-03-25T09:48:00;10.80;99.90
75262;DHT22;63859;51.064;4.580;2023-03-25T09:50:29;11.00;99.90
75262;DHT22;63859;51.064;4.580;2023-03-25T09:53:06;11.00;99.90
75262;DHT22;63859;51.064;4.580;2023-03-25T09:55:40;11.00;99.90
75262;DHT22;63859;51.064;4.580;2023-03-25T09:58:28;11.10;99.90
75262;DHT22;63859;51.064;4.580;2023-03-25T10:03:47;11.00;99.90
75262;DHT22;63859;51.064;4.580;2023-03-25T10:06:19;10.70;99.90
75262;DHT22;63859;51.064;4.580;2023-03-25T10:13:53;10.20;99.90
75262;DHT22;63859;51.064;4.580;2023-03-25T10:21:52;9.50;99.90
75262;DHT22;63859;51.064;4.580;2023-03-25T10:24:30;9.30;99.90
75262;DHT22;63859;51.064;4.580;2023-03-25T10:27:04;9.10;99.90
75262;DHT22;63859;51.064;4.580;2023-03-25T10:30:12;9.10;99.90
75262;DHT22;63859;51.064;4.580;2023-03-25T10:34:53;9.50;99.90
75262;DHT22;63859;51.064;4.580;2023-03-25T10:37:47;9.90;99.90
75262;DHT22;63859;51.064;4.580;2023-03-25T10:45:22;11.10;99.90
75262;DHT22;63859;51.064;4.580;2023-03-25T10:47:50;11.20;99.90
75262;DHT22;63859;51.064;4.580;2023-03-25T10:50:19;11.30;99.90
75262;DHT22;63859;51.064;4.580;2023-03-25T10:52:47;11.60;99.90
75262;DHT22;63859;51.064;4.580;2023-03-25T10:55:29;11.80;99.90
75262;DHT22;63859;51.064;4.580;2023-03-25T10:57:57;12.00;99.90
75262;DHT22;63859;51.064;4.580;2023-03-25T11:00:22;12.10;99.90
75262;DHT22;63859;51.064;4.580;2023-03-25T11:02:51;12.10;99.90
75262;DHT22;63859;51.064;4.580;2023-03-25T11:05:19;12.20;99.90
75262;DHT22;63859;51.064;4.580;2023-03-25T11:10:24;12.40;99.90
75262;DHT22;63859;51.064;4.580;2023-03-25T11:12:51;12.60;99.90
75262;DHT22;63859;51.064;4.580;2023-03-25T11:15:21;12.20;99.90
75262;DHT22;63859;51.064;4.580;2023-03-25T11:18:03;11.90;99.90
75262;DHT22;63859;51.064;4.580;2023-03-25T11:20:36;11.60;99.90
75262;DHT22;63859;51.064;4.580;2023-03-25T11:23:11;11.60;99.90
75262;DHT22;63859;51.064;4.580;2023-03-25T11:25:41;11.60;99.90
75262;DHT22;63859;51.064;4.580;2023-03-25T11:28:19;11.50;99.90
75262;DHT22;63859;51.064;4.580;2023-03-25T11:31:13;11.30;99.90
75262;DHT22;63859;51.064;4.580;2023-03-25T11:33:40;11.10;99.90
75262;DHT22;63859;51.064;4.580;2023-03-25T11:36:28;10.70;99.90
75262;DHT22;63859;51.064;4.580;2023-03-25T11:39:47;10.30;99.90
75262;DHT22;63859;51.064;4.580;2023-03-25T11:41:48;10.00;99.90
75262;DHT22;63859;51.064;4.580;2023-03-25T11:44:28;10.20;99.90
75262;DHT22;63859;51.064;4.580;2023-03-25T11:46:59;10.40;99.90
75262;DHT22;63859;51.064;4.580;2023-03-25T11:49:26;10.70;99.90
75262;DHT22;63859;51.064;4.580;2023-03-25T11:51:58;10.80;99.90
75262;DHT22;63859;51.064;4.580;2023-03-25T11:54:26;11.10;99.90
75262;DHT22;63859;51.064;4.580;2023-03-25T11:56:53;11.40;99.90
75262;DHT22;63859;51.064;4.580;2023-03-25T11:59:27;11.60;99.90
75262;DHT22;63859;51.064;4.580;2023-03-25T12:02:19;11.80;99.90
75262;DHT22;63859;51.064;4.580;2023-03-25T12:07:46;12.30;99.90
75262;DHT22;63859;51.064;4.580;2023-03-25T12:10:19;12.50;99.90
75262;DHT22;63859;51.064;4.580;2023-03-25T12:12:56;12.70;99.90
75262;DHT22;63859;51.064;4.580;2023-03-25T12:15:36;12.70;99.90
75262;DHT22;63859;51.064;4.580;2023-03-25T12:18:33;12.60;99.90
75262;DHT22;63859;51.064;4.580;2023-03-25T12:32:02;11.30;99.90
75262;DHT22;63859;51.064;4.580;2023-03-25T12:34:49;11.00;99.90
75262;DHT22;63859;51.064;4.580;2023-03-25T12:43:08;10.70;99.90
75262;DHT22;63859;51.064;4.580;2023-03-25T13:02:18;11.50;99.90
75262;DHT22;63859;51.064;4.580;2023-03-25T13:07:28;11.30;99.90
75262;DHT22;63859;51.064;4.580;2023-03-25T13:09:59;11.10;99.90
75262;DHT22;63859;51.064;4.580;2023-03-25T13:12:40;10.90;99.90
75262;DHT22;63859;51.064;4.580;2023-03-25T13:18:07;10.40;99.90
75262;DHT22;63859;51.064;4.580;2023-03-25T13:20:46;10.20;99.90
75262;DHT22;63859;51.064;4.580;2023-03-25T13:23:17;10.10;99.90
75262;DHT22;63859;51.064;4.580;2023-03-25T13:28:54;10.40;99.90
75262;DHT22;63859;51.064;4.580;2023-03-25T13:31:26;10.40;99.90
75262;DHT22;63859;51.064;4.580;2023-03-25T13:34:15;10.60;99.90
75262;DHT22;63859;51.064;4.580;2023-03-25T13:39:26;11.30;99.90
75262;DHT22;63859;51.064;4.580;2023-03-25T13:42:01;11.30;99.90
75262;DHT22;63859;51.064;4.580;2023-03-25T13:44:38;11.20;99.90
75262;DHT22;63859;51.064;4.580;2023-03-25T13:47:16;11.20;99.90
75262;DHT22;63859;51.064;4.580;2023-03-25T13:52:34;10.80;99.90
75262;DHT22;63859;51.064;4.580;2023-03-25T13:55:22;10.90;99.90
75262;DHT22;63859;51.064;4.580;2023-03-25T14:04:16;12.00;99.90
75262;DHT22;63859;51.064;4.580;2023-03-25T14:12:27;12.60;99.90
75262;DHT22;63859;51.064;4.580;2023-03-25T14:14:59;12.80;99.90
75262;DHT22;63859;51.064;4.580;2023-03-25T14:17:28;12.90;99.90
75262;DHT22;63859;51.064;4.580;2023-03-25T14:19:57;13.20;99.90
75262;DHT22;63859;51.064;4.580;2023-03-25T14:22:27;13.00;99.90
75262;DHT22;63859;51.064;4.580;2023-03-25T14:24:54;12.80;99.90
75262;DHT22;63859;51.064;4.580;2023-03-25T14:27:27;12.60;99.90
75262;DHT22;63859;51.064;4.580;2023-03-25T14:30:19;12.50;99.90
75262;DHT22;63859;51.064;4.580;2023-03-25T14:32:45;12.60;99.90
75262;DHT22;63859;51.064;4.580;2023-03-25T14:37:55;12.40;99.90
75262;DHT22;63859;51.064;4.580;2023-03-25T14:40:48;12.20;99.90
75262;DHT22;63859;51.064;4.580;2023-03-25T14:43:25;11.90;99.90
75262;DHT22;63859;51.064;4.580;2023-03-25T14:48:31;11.50;99.90
75262;DHT22;63859;51.064;4.580;2023-03-25T14:57:17;10.70;99.90
75262;DHT22;63859;51.064;4.580;2023-03-25T14:59:59;10.60;99.90
75262;DHT22;63859;51.064;4.580;2023-03-25T15:02:31;10.80;99.90
75262;DHT22;63859;51.064;4.580;2023-03-25T15:05:01;11.00;99.90
75262;DHT22;63859;51.064;4.580;2023-03-25T15:07:48;11.20;99.90
75262;DHT22;63859;51.064;4.580;2023-03-25T15:12:50;11.60;99.90
75262;DHT22;63859;51.064;4.580;2023-03-25T15:15:32;12.00;99.90
75262;DHT22;63859;51.064;4.580;2023-03-25T15:17:58;12.20;99.90
75262;DHT22;63859;51.064;4.580;2023-03-25T15:25:55;13.10;99.90
75262;DHT22;63859;51.064;4.580;2023-03-25T15:31:42;13.70;99.90
75262;DHT22;63859;51.064;4.580;2023-03-25T15:34:11;13.90;99.90
75262;DHT22;63859;51.064;4.580;2023-03-25T15:36:55;14.10;99.90
75262;DHT22;63859;51.064;4.580;2023-03-25T15:42:15;13.70;99.90
75262;DHT22;63859;51.064;4.580;2023-03-25T15:53:26;12.50;99.90
75262;DHT22;63859;51.064;4.580;2023-03-25T15:55:58;12.40;99.90
75262;DHT22;63859;51.064;4.580;2023-03-25T15:58:31;12.10;99.90
75262;DHT22;63859;51.064;4.580;2023-03-25T16:01:22;12.00;99.90
75262;DHT22;63859;51.064;4.580;2023-03-25T16:06:22;11.60;99.90
75262;DHT22;63859;51.064;4.580;2023-03-25T16:08:49;11.60;99.90
75262;DHT22;63859;51.064;4.580;2023-03-25T16:13:44;11.60;99.90
75262;DHT22;63859;51.064;4.580;2023-03-25T16:16:14;11.80;99.90
75262;DHT22;63859;51.064;4.580;2023-03-25T16:18:44;11.80;99.90
75262;DHT22;63859;51.064;4.580;2023-03-25T16:21:10;11.90;99.90
75262;DHT22;63859;51.064;4.580;2023-03-25T16:23:37;11.90;99.90
75262;DHT22;63859;51.064;4.580;2023-03-25T16:26:04;12.10;99.90
75262;DHT22;63859;51.064;4.580;2023-03-25T16:28:38;12.10;99.90
75262;DHT22;63859;51.064;4.580;2023-03-25T16:31:03;12.00;99.90
75262;DHT22;63859;51.064;4.580;2023-03-25T16:33:32;12.00;99.90
75262;DHT22;63859;51.064;4.580;2023-03-25T16:36:04;11.90;99.90
75262;DHT22;63859;51.064;4.580;2023-03-25T16:38:32;11.90;99.90
75262;DHT22;63859;51.064;4.580;2023-03-25T16:40:59;11.90;99.90
75262;DHT22;63859;51.064;4.580;2023-03-25T16:43:26;11.90;99.90
75262;DHT22;63859;51.064;4.580;2023-03-25T16:45:56;12.00;99.90
75262;DHT22;63859;51.064;4.580;2023-03-25T16:48:29;12.00;99.90
75262;DHT22;63859;51.064;4.580;2023-03-25T16:50:58;11.90;99.90
75262;DHT22;63859;51.064;4.580;2023-03-25T16:53:25;11.90;99.90
75262;DHT22;63859;51.064;4.580;2023-03-25T16:56:19;11.90;99.90
75262;DHT22;63859;51.064;4.580;2023-03-25T17:01:25;12.00;99.90
75262;DHT22;63859;51.064;4.580;2023-03-25T17:03:50;12.00;99.90
75262;DHT22;63859;51.064;4.580;2023-03-25T17:08:52;11.90;99.90
75262;DHT22;63859;51.064;4.580;2023-03-25T17:11:19;11.90;99.90
75262;DHT22;63859;51.064;4.580;2023-03-25T17:13:47;11.80;99.90
75262;DHT22;63859;51.064;4.580;2023-03-25T17:16:17;11.80;99.90
75262;DHT22;63859;51.064;4.580;2023-03-25T17:18:45;11.70;99.90
75262;DHT22;63859;51.064;4.580;2023-03-25T17:21:20;11.70;99.90
75262;DHT22;63859;51.064;4.580;2023-03-25T17:23:46;11.60;99.90
75262;DHT22;63859;51.064;4.580;2023-03-25T17:26:16;11.60;99.90
75262;DHT22;63859;51.064;4.580;2023-03-25T17:31:38;11.50;99.90
75262;DHT22;63859;51.064;4.580;2023-03-25T17:34:18;11.50;99.90
75262;DHT22;63859;51.064;4.580;2023-03-25T17:36:47;11.50;99.90
75262;DHT22;63859;51.064;4.580;2023-03-25T17:41:42;11.50;99.90
75262;DHT22;63859;51.064;4.580;2023-03-25T17:44:15;11.50;99.90
75262;DHT22;63859;51.064;4.580;2023-03-25T17:46:41;11.40;99.90
75262;DHT22;63859;51.064;4.580;2023-03-25T17:49:16;11.40;99.90
75262;DHT22;63859;51.064;4.580;2023-03-25T17:51:42;11.40;99.90
75262;DHT22;63859;51.064;4.580;2023-03-25T17:54:08;11.40;99.90
75262;DHT22;63859;51.064;4.580;2023-03-25T17:56:34;11.30;99.90
75262;DHT22;63859;51.064;4.580;2023-03-25T17:59:06;11.30;99.90
75262;DHT22;63859;51.064;4.580;2023-03-25T18:01:32;11.20;99.90
75262;DHT22;63859;51.064;4.580;2023-03-25T18:03:59;11.10;99.90
75262;DHT22;63859;51.064;4.580;2023-03-25T18:06:25;11.10;99.90
75262;DHT22;63859;51.064;4.580;2023-03-25T18:08:51;11.10;99.90
75262;DHT22;63859;51.064;4.580;2023-03-25T18:11:17;11.10;99.90
75262;DHT22;63859;51.064;4.580;2023-03-25T18:13:43;11.10;99.90
75262;DHT22;63859;51.064;4.580;2023-03-25T18:16:20;11.10;99.90
75262;DHT22;63859;51.064;4.580;2023-03-25T18:18:46;11.10;99.90
75262;DHT22;63859;51.064;4.580;2023-03-25T18:21:14;11.00;99.90
75262;DHT22;63859;51.064;4.580;2023-03-25T18:23:41;11.10;99.90
75262;DHT22;63859;51.064;4.580;2023-03-25T18:26:13;11.10;99.90
75262;DHT22;63859;51.064;4.580;2023-03-25T18:28:39;11.10;99.90
75262;DHT22;63859;51.064;4.580;2023-03-25T18:31:09;11.10;99.90
75262;DHT22;63859;51.064;4.580;2023-03-25T18:33:42;11.10;99.90
75262;DHT22;63859;51.064;4.580;2023-03-25T18:36:08;11.10;99.90
75262;DHT22;63859;51.064;4.580;2023-03-25T18:38:35;11.00;99.90
75262;DHT22;63859;51.064;4.580;2023-03-25T18:41:01;11.00;99.90
75262;DHT22;63859;51.064;4.580;2023-03-25T18:43:27;11.00;99.90
75262;DHT22;63859;51.064;4.580;2023-03-25T18:45:52;11.00;99.90
75262;DHT22;63859;51.064;4.580;2023-03-25T18:48:19;10.90;99.90